Time;durP1;ratioP1;P1;durP2;ratioP2;P2;SDS_P1;SDS_P2;PMS_P1;PMS_P2;Temp;Humidity;BMP_temperature;BMP_pressure;BME280_temperature;BME280_humidity;BME280_pressure;Samples;Min_cycle;Max_cycle;Signal;HPM_P1;HPM_P2
2024/01/26 00:01:49;;;;;;;8.95;4.85;;;12.20;99.90;;;;;;4234700;27;20492;-57
2024/01/26 00:03:52;;;;;;;;;;;12.20;99.90;;;;;;4253597;27;20072;-57
2024/01/26 00:05:57;;;;;;;7.45;4.38;;;12.20;99.90;;;;;;4252605;27;20378;-58
2024/01/26 00:08:02;;;;;;;9.52;4.72;;;12.10;99.90;;;;;;4253043;27;20409;-57
2024/01/26 00:10:06;;;;;;;11.27;4.45;;;12.10;99.90;;;;;;4253030;27;20039;-58
2024/01/26 00:12:08;;;;;;;9.80;4.78;;;12.10;99.90;;;;;;4252772;27;20047;-57
2024/01/26 00:14:10;;;;;;;8.70;5.20;;;12.10;99.90;;;;;;4252621;27;20039;-58
2024/01/26 00:16:18;;;;;;;7.30;4.30;;;12.10;99.90;;;;;;4249227;27;20051;-58
2024/01/26 00:18:26;;;;;;;7.07;3.78;;;12.10;99.90;;;;;;4250033;27;20078;-58
2024/01/26 00:20:28;;;;;;;9.27;4.47;;;12.10;99.90;;;;;;4249820;27;20051;-58
2024/01/26 00:22:35;;;;;;;9.93;4.38;;;12.10;99.90;;;;;;4249954;27;20126;-57
2024/01/26 00:24:37;;;;;;;11.43;4.60;;;12.20;99.90;;;;;;4191424;28;20466;-58
2024/01/26 00:26:43;;;;;;;8.70;4.95;;;12.10;99.90;;;;;;4232868;28;20047;-58
2024/01/26 00:28:45;;;;;;;8.40;4.95;;;12.10;99.90;;;;;;4231720;28;20078;-58
2024/01/26 00:30:47;;;;;;;9.23;5.30;;;12.10;99.90;;;;;;4232885;28;20474;-58
2024/01/26 00:32:50;;;;;;;9.93;5.15;;;12.00;99.90;;;;;;4233024;28;20447;-58
2024/01/26 00:34:53;;;;;;;9.45;5.03;;;12.00;99.90;;;;;;4232700;28;20047;-58
2024/01/26 00:36:59;;;;;;;10.52;4.70;;;12.00;99.90;;;;;;4232964;28;20131;-58
2024/01/26 00:39:04;;;;;;;9.48;4.95;;;12.00;99.90;;;;;;4231810;28;20043;-58
2024/01/26 00:41:06;;;;;;;12.20;5.05;;;12.00;99.90;;;;;;4233245;28;20047;-57
2024/01/26 00:43:10;;;;;;;9.07;4.50;;;12.00;99.90;;;;;;4233197;28;20126;-58
2024/01/26 00:45:13;;;;;;;9.77;5.30;;;12.10;99.90;;;;;;4232001;28;20234;-57
2024/01/26 00:47:15;;;;;;;12.93;5.43;;;12.10;99.90;;;;;;4231782;28;20056;-58
2024/01/26 00:49:17;;;;;;;12.27;4.70;;;12.10;99.90;;;;;;4232395;28;20097;-58
2024/01/26 00:51:21;;;;;;;7.97;4.93;;;12.20;99.90;;;;;;4232685;28;20410;-57
2024/01/26 00:53:24;;;;;;;10.18;5.28;;;12.20;99.90;;;;;;4232738;28;20055;-56
2024/01/26 00:55:29;;;;;;;10.63;5.43;;;12.10;99.90;;;;;;4237064;27;20051;-55
2024/01/26 00:57:31;;;;;;;9.70;4.70;;;12.20;99.90;;;;;;4249429;27;20051;-55
2024/01/26 00:59:33;;;;;;;12.15;5.72;;;12.20;99.90;;;;;;4249662;27;20054;-56
2024/01/26 01:01:35;;;;;;;9.80;5.40;;;12.20;99.90;;;;;;4249352;27;20057;-55
2024/01/26 01:03:37;;;;;;;16.90;5.95;;;12.20;99.90;;;;;;4249065;27;20103;-56
2024/01/26 01:05:42;;;;;;;9.60;5.50;;;12.20;99.90;;;;;;4249531;27;20043;-55
2024/01/26 01:07:46;;;;;;;12.48;6.07;;;12.20;99.90;;;;;;4249687;27;20057;-56
2024/01/26 01:09:48;;;;;;;9.93;5.30;;;12.20;99.90;;;;;;4249462;27;20387;-59
2024/01/26 01:11:50;;;;;;;10.77;5.38;;;12.20;99.90;;;;;;4249059;27;20055;-56
2024/01/26 01:13:52;;;;;;;8.32;5.57;;;12.20;99.90;;;;;;4231187;28;20040;-58
2024/01/26 01:15:54;;;;;;;8.90;6.00;;;12.10;99.90;;;;;;4249281;27;20126;-58
2024/01/26 01:17:56;;;;;;;14.10;6.10;;;12.20;99.90;;;;;;4248805;27;20070;-57
2024/01/26 01:19:59;;;;;;;8.23;5.45;;;12.20;99.90;;;;;;4249447;27;20065;-57
2024/01/26 01:22:01;;;;;;;10.00;5.45;;;12.20;99.90;;;;;;4249274;27;20064;-58
2024/01/26 01:24:05;;;;;;;9.95;6.25;;;12.20;99.90;;;;;;4251000;27;20058;-58
2024/01/26 01:26:08;;;;;;;9.88;6.03;;;12.20;99.90;;;;;;4268297;27;20045;-58
2024/01/26 01:28:10;;;;;;;8.07;6.15;;;12.20;99.90;;;;;;4268076;27;20052;-56
2024/01/26 01:30:12;;;;;;;10.65;6.28;;;12.20;99.90;;;;;;4267489;27;20043;-58
2024/01/26 01:32:14;;;;;;;14.82;6.50;;;12.20;99.90;;;;;;4266383;27;20060;-55
2024/01/26 01:34:17;;;;;;;13.45;6.82;;;12.20;99.90;;;;;;4248168;27;20043;-56
2024/01/26 01:36:19;;;;;;;10.55;6.40;;;12.20;99.90;;;;;;4266289;27;20038;-58
2024/01/26 01:38:21;;;;;;;11.60;7.00;;;12.20;99.90;;;;;;4266263;27;20394;-58
2024/01/26 01:40:24;;;;;;;15.65;6.75;;;12.30;99.90;;;;;;4266120;27;20046;-58
2024/01/26 01:42:26;;;;;;;11.82;7.53;;;12.20;99.90;;;;;;4266402;27;20055;-59
2024/01/26 01:44:29;;;;;;;15.68;7.55;;;12.30;99.90;;;;;;4267034;27;20039;-58
2024/01/26 01:46:31;;;;;;;15.52;7.35;;;12.30;99.90;;;;;;4266130;27;20372;-59
2024/01/26 01:48:33;;;;;;;9.65;7.05;;;12.30;99.90;;;;;;4266287;27;20043;-63
2024/01/26 01:50:35;;;;;;;12.68;6.88;;;12.30;99.90;;;;;;4266421;27;20062;-58
2024/01/26 01:52:43;;;;;;;13.18;7.30;;;12.30;99.90;;;;;;4266776;27;20125;-58
2024/01/26 01:54:47;;;;;;;13.57;7.03;;;12.30;99.90;;;;;;4266113;27;20046;-58
2024/01/26 01:56:53;;;;;;;10.93;6.72;;;12.30;99.90;;;;;;4249435;27;20406;-58
2024/01/26 01:58:58;;;;;;;12.60;7.30;;;12.30;99.90;;;;;;4249128;27;20442;-57
2024/01/26 02:01:00;;;;;;;9.10;6.75;;;12.40;99.90;;;;;;4248546;27;20536;-58
2024/01/26 02:03:03;;;;;;;11.13;6.70;;;12.40;99.90;;;;;;4248833;27;20039;-58
2024/01/26 02:05:05;;;;;;;12.82;6.20;;;12.40;99.90;;;;;;4248832;27;20043;-58
2024/01/26 02:07:08;;;;;;;10.90;6.25;;;12.40;99.90;;;;;;4248480;27;20072;-59
2024/01/26 02:09:10;;;;;;;9.68;6.20;;;12.40;99.90;;;;;;4249156;27;20393;-58
2024/01/26 02:11:12;;;;;;;12.55;6.03;;;12.40;99.90;;;;;;4248724;27;20047;-58
2024/01/26 02:13:16;;;;;;;10.20;6.30;;;12.50;99.90;;;;;;4248391;27;20055;-56
2024/01/26 02:15:18;;;;;;;13.45;5.97;;;12.40;99.90;;;;;;4248272;27;20039;-58
2024/01/26 02:17:20;;;;;;;10.43;6.70;;;12.50;99.90;;;;;;4248541;27;20058;-59
2024/01/26 02:19:23;;;;;;;15.15;6.85;;;12.50;99.90;;;;;;4248672;27;20078;-56
2024/01/26 02:21:27;;;;;;;;;;;12.50;99.90;;;;;;4248819;27;20489;-56
2024/01/26 02:23:30;;;;;;;9.60;5.88;;;12.40;99.90;;;;;;4248684;27;19920;-56
2024/01/26 02:25:32;;;;;;;11.38;6.05;;;12.40;99.90;;;;;;4262604;27;20055;-59
2024/01/26 02:27:35;;;;;;;10.82;5.57;;;12.40;99.90;;;;;;4266960;27;20054;-60
2024/01/26 02:29:37;;;;;;;13.73;6.57;;;12.40;99.90;;;;;;4266559;27;20097;-57
2024/01/26 02:31:40;;;;;;;12.00;5.95;;;12.40;99.90;;;;;;4266703;27;20464;-58
2024/01/26 02:33:42;;;;;;;12.45;6.50;;;12.50;99.90;;;;;;4266067;27;20042;-56
2024/01/26 02:35:44;;;;;;;9.18;5.53;;;12.50;99.90;;;;;;4265552;27;20054;-57
2024/01/26 02:37:46;;;;;;;8.95;5.18;;;12.60;99.90;;;;;;4264748;27;20050;-57
2024/01/26 02:39:50;;;;;;;13.00;6.10;;;12.60;99.90;;;;;;4264835;27;20070;-57
2024/01/26 02:41:53;;;;;;;14.32;6.53;;;12.60;99.90;;;;;;4265003;27;20047;-56
2024/01/26 02:43:55;;;;;;;15.30;5.68;;;12.50;99.90;;;;;;4264968;27;20447;-57
2024/01/26 02:45:58;;;;;;;10.30;5.43;;;12.50;99.90;;;;;;4264950;27;20049;-56
2024/01/26 02:48:00;;;;;;;9.40;5.18;;;12.50;99.90;;;;;;4246951;27;20066;-56
2024/01/26 02:50:03;;;;;;;7.47;5.40;;;12.50;99.90;;;;;;4265083;27;20059;-56
2024/01/26 02:52:05;;;;;;;12.05;5.38;;;12.50;99.90;;;;;;4264978;27;20428;-57
2024/01/26 02:54:07;;;;;;;10.40;5.30;;;12.50;99.90;;;;;;4265118;27;20054;-58
2024/01/26 02:56:11;;;;;;;10.77;5.35;;;12.60;99.90;;;;;;4254175;27;20058;-57
2024/01/26 02:58:13;;;;;;;9.63;5.28;;;12.50;99.90;;;;;;4247518;27;20079;-55
2024/01/26 03:00:16;;;;;;;12.32;5.78;;;12.50;99.90;;;;;;4247393;27;20070;-55
2024/01/26 03:02:19;;;;;;;11.85;5.63;;;12.60;99.90;;;;;;4248283;28;20061;-57
2024/01/26 03:04:21;;;;;;;13.52;5.80;;;12.50;99.90;;;;;;4248223;28;20134;-59
2024/01/26 03:06:23;;;;;;;9.95;4.97;;;12.50;99.90;;;;;;4249938;28;20047;-58
2024/01/26 03:08:25;;;;;;;7.90;5.00;;;12.50;99.90;;;;;;4249604;28;20092;-57
2024/01/26 03:10:27;;;;;;;10.90;5.93;;;12.50;99.90;;;;;;4249207;28;20054;-59
2024/01/26 03:12:33;;;;;;;9.70;5.47;;;12.60;99.90;;;;;;4249011;28;20448;-56
2024/01/26 03:14:35;;;;;;;11.45;5.00;;;12.50;99.90;;;;;;4248866;28;20073;-56
2024/01/26 03:16:40;;;;;;;16.55;5.70;;;12.50;99.90;;;;;;4248391;28;20126;-56
2024/01/26 03:18:43;;;;;;;11.40;5.57;;;12.60;99.90;;;;;;4247499;28;20039;-56
2024/01/26 03:20:45;;;;;;;10.25;5.03;;;12.60;99.90;;;;;;4229267;28;20126;-55
2024/01/26 03:22:47;;;;;;;9.02;5.53;;;12.60;99.90;;;;;;4247812;28;20078;-56
2024/01/26 03:24:50;;;;;;;12.25;5.35;;;12.60;99.90;;;;;;4247537;28;20051;-55
2024/01/26 03:26:52;;;;;;;9.80;5.18;;;12.60;99.90;;;;;;4247687;28;20043;-56
2024/01/26 03:28:55;;;;;;;11.13;5.47;;;12.60;99.90;;;;;;4247324;28;20047;-55
2024/01/26 03:30:57;;;;;;;10.13;5.25;;;12.60;99.90;;;;;;4247700;28;20054;-56
2024/01/26 03:33:00;;;;;;;15.68;6.13;;;12.60;99.90;;;;;;4247618;28;20405;-55
2024/01/26 03:35:02;;;;;;;13.60;5.80;;;12.70;99.90;;;;;;4247307;28;20047;-56
2024/01/26 03:37:04;;;;;;;9.25;5.70;;;12.60;99.90;;;;;;4247226;28;20483;-56
2024/01/26 03:39:09;;;;;;;12.90;5.28;;;12.60;99.90;;;;;;4247669;28;20075;-56
2024/01/26 03:41:11;;;;;;;9.73;5.43;;;12.60;99.90;;;;;;4248067;28;20071;-58
2024/01/26 03:43:13;;;;;;;16.40;6.07;;;12.60;99.90;;;;;;4247367;28;20495;-56
2024/01/26 03:45:17;;;;;;;11.73;5.45;;;12.60;99.90;;;;;;4247390;28;20043;-57
2024/01/26 03:47:19;;;;;;;12.55;5.70;;;12.60;99.90;;;;;;4247808;28;20039;-60
2024/01/26 03:49:21;;;;;;;12.15;5.43;;;12.60;99.90;;;;;;4247566;27;20395;-57
2024/01/26 03:51:23;;;;;;;12.38;6.28;;;12.60;99.90;;;;;;4249945;27;20092;-56
2024/01/26 03:53:25;;;;;;;16.27;6.47;;;12.60;99.90;;;;;;4250498;27;20486;-56
2024/01/26 03:55:27;;;;;;;12.52;5.50;;;12.60;99.90;;;;;;4250326;27;20073;-56
2024/01/26 03:57:29;;;;;;;9.75;5.88;;;12.50;99.90;;;;;;4250288;27;20063;-56
2024/01/26 03:59:32;;;;;;;13.55;6.22;;;12.60;99.90;;;;;;4250323;27;20043;-56
2024/01/26 04:01:35;;;;;;;11.55;6.05;;;12.50;99.90;;;;;;4250311;27;20489;-56
2024/01/26 04:03:37;;;;;;;10.05;5.97;;;12.50;99.90;;;;;;4250391;27;20494;-56
2024/01/26 04:05:39;;;;;;;14.07;6.05;;;12.60;99.90;;;;;;4250453;27;20393;-56
2024/01/26 04:07:42;;;;;;;15.55;6.30;;;12.60;99.90;;;;;;4250465;27;20065;-56
2024/01/26 04:09:44;;;;;;;16.98;6.25;;;12.60;99.90;;;;;;4250517;27;20055;-56
2024/01/26 04:11:46;;;;;;;14.68;6.18;;;12.60;99.90;;;;;;4249940;27;20470;-56
2024/01/26 04:13:48;;;;;;;13.57;6.20;;;12.60;99.90;;;;;;4250557;27;20072;-56
2024/01/26 04:15:50;;;;;;;13.77;6.65;;;12.60;99.90;;;;;;4250253;27;20073;-56
2024/01/26 04:17:53;;;;;;;13.23;6.47;;;12.60;99.90;;;;;;4231897;28;20086;-56
2024/01/26 04:19:56;;;;;;;14.80;6.28;;;12.60;99.90;;;;;;4250219;27;20080;-57
2024/01/26 04:21:58;;;;;;;12.95;5.70;;;12.60;99.90;;;;;;4250189;27;20058;-59
2024/01/26 04:24:00;;;;;;;10.60;6.45;;;12.60;99.90;;;;;;4250488;27;20043;-59
2024/01/26 04:26:04;;;;;;;14.13;6.50;;;12.60;99.90;;;;;;4248517;27;20050;-59
2024/01/26 04:28:07;;;;;;;14.43;6.82;;;12.70;99.90;;;;;;4267289;27;20046;-57
2024/01/26 04:30:10;;;;;;;13.68;6.47;;;12.60;99.90;;;;;;4267391;27;20077;-57
2024/01/26 04:32:12;;;;;;;11.77;6.25;;;12.60;99.90;;;;;;4270898;27;20064;-57
2024/01/26 04:34:15;;;;;;;13.18;6.03;;;12.60;99.90;;;;;;4270200;27;20045;-59
2024/01/26 04:36:18;;;;;;;11.13;6.55;;;12.60;99.90;;;;;;4270460;27;20070;-59
2024/01/26 04:38:20;;;;;;;10.18;5.45;;;12.60;99.90;;;;;;4268071;27;20046;-60
2024/01/26 04:40:22;;;;;;;11.88;5.95;;;12.60;99.90;;;;;;4249606;27;20094;-59
2024/01/26 04:42:24;;;;;;;10.73;6.05;;;12.60;99.90;;;;;;4268983;27;20051;-59
2024/01/26 04:44:26;;;;;;;12.38;5.25;;;12.60;99.90;;;;;;4267308;27;20493;-59
2024/01/26 04:46:28;;;;;;;9.32;5.55;;;12.60;99.90;;;;;;4267254;27;20051;-59
2024/01/26 04:48:30;;;;;;;13.00;5.80;;;12.70;99.90;;;;;;4248547;27;20042;-59
2024/01/26 04:50:34;;;;;;;10.63;5.28;;;12.70;99.90;;;;;;4266815;27;20043;-59
2024/01/26 04:52:36;;;;;;;12.25;5.82;;;12.60;99.90;;;;;;4266921;27;20053;-58
2024/01/26 04:54:41;;;;;;;11.88;5.45;;;12.60;99.90;;;;;;4266605;27;20489;-59
2024/01/26 04:56:43;;;;;;;11.63;5.45;;;12.60;99.90;;;;;;4251053;27;20092;-59
2024/01/26 04:58:45;;;;;;;12.07;5.75;;;12.60;99.90;;;;;;4249788;27;20082;-59
2024/01/26 05:00:47;;;;;;;14.20;6.70;;;12.60;99.90;;;;;;4249109;27;20039;-58
2024/01/26 05:02:49;;;;;;;13.18;5.97;;;12.60;99.90;;;;;;4249324;27;20536;-65
2024/01/26 05:04:52;;;;;;;11.35;5.85;;;12.60;99.90;;;;;;4249346;27;20051;-59
2024/01/26 05:06:56;;;;;;;11.38;5.93;;;12.70;99.90;;;;;;4249487;27;20039;-59
2024/01/26 05:08:58;;;;;;;15.77;6.03;;;12.70;99.90;;;;;;4249612;27;20490;-59
2024/01/26 05:11:01;;;;;;;17.73;6.68;;;12.70;99.90;;;;;;4249223;27;20526;-59
2024/01/26 05:13:03;;;;;;;15.60;6.82;;;12.60;99.90;;;;;;4249091;27;20055;-59
2024/01/26 05:15:09;;;;;;;14.27;6.13;;;12.60;99.90;;;;;;4249256;27;20457;-59
2024/01/26 05:17:11;;;;;;;15.02;5.53;;;12.60;99.90;;;;;;4231100;28;20117;-59
2024/01/26 05:19:14;;;;;;;15.13;6.50;;;12.60;99.90;;;;;;4249386;27;20053;-58
2024/01/26 05:21:16;;;;;;;12.73;6.25;;;12.60;99.90;;;;;;4249897;27;20477;-58
2024/01/26 05:23:20;;;;;;;15.75;6.32;;;12.60;99.90;;;;;;4249701;27;20047;-58
2024/01/26 05:25:22;;;;;;;13.45;6.30;;;12.50;99.90;;;;;;4261138;27;20043;-58
2024/01/26 05:27:24;;;;;;;14.70;6.05;;;12.50;99.90;;;;;;4266197;27;20066;-58
2024/01/26 05:29:26;;;;;;;9.75;5.57;;;12.50;99.90;;;;;;4266069;27;20042;-58
2024/01/26 05:31:28;;;;;;;11.45;6.03;;;12.50;99.90;;;;;;4266184;27;20394;-58
2024/01/26 05:33:30;;;;;;;13.27;5.82;;;12.50;99.90;;;;;;4266077;27;20047;-59
2024/01/26 05:35:33;;;;;;;15.93;5.55;;;12.50;99.90;;;;;;4266379;27;20171;-59
2024/01/26 05:37:35;;;;;;;15.13;5.72;;;12.50;99.90;;;;;;4265931;27;20065;-59
2024/01/26 05:39:39;;;;;;;11.85;4.45;;;12.60;99.90;;;;;;4265470;27;20047;-60
2024/01/26 05:41:41;;;;;;;16.33;6.32;;;12.60;99.90;;;;;;4266166;27;20093;-59
2024/01/26 05:43:43;;;;;;;15.30;5.25;;;12.60;99.90;;;;;;4265955;27;20090;-59
2024/01/26 05:45:45;;;;;;;11.55;5.05;;;12.60;99.90;;;;;;4265756;27;20046;-59
2024/01/26 05:47:47;;;;;;;16.52;5.10;;;12.60;99.90;;;;;;4266006;27;20069;-59
2024/01/26 05:49:50;;;;;;;14.45;4.70;;;12.70;99.90;;;;;;4265899;27;20047;-59
2024/01/26 05:51:52;;;;;;;10.82;5.28;;;12.70;99.90;;;;;;4265719;27;20047;-59
2024/01/26 05:53:55;;;;;;;12.95;5.53;;;12.70;99.90;;;;;;4265160;27;20378;-58
2024/01/26 05:56:00;;;;;;;17.35;4.95;;;12.70;99.90;;;;;;4256656;27;20057;-59
2024/01/26 05:58:03;;;;;;;13.27;5.55;;;12.80;99.90;;;;;;4248636;27;20070;-59
2024/01/26 06:00:06;;;;;;;14.32;5.45;;;12.70;99.90;;;;;;4248380;27;20070;-60
2024/01/26 06:02:08;;;;;;;10.27;4.65;;;12.80;99.90;;;;;;4248399;27;20043;-59
2024/01/26 06:04:10;;;;;;;14.30;5.82;;;12.80;99.90;;;;;;4248516;27;20084;-59
2024/01/26 06:06:12;;;;;;;9.25;4.80;;;12.80;99.90;;;;;;4248507;27;20039;-59
2024/01/26 06:08:14;;;;;;;13.23;4.90;;;12.70;99.90;;;;;;4248109;27;20073;-59
2024/01/26 06:10:17;;;;;;;12.07;5.20;;;12.70;99.90;;;;;;4248206;27;20039;-59
2024/01/26 06:12:20;;;;;;;14.48;5.15;;;12.70;99.90;;;;;;4247403;27;20066;-59
2024/01/26 06:14:22;;;;;;;11.63;4.95;;;12.80;99.90;;;;;;4247623;27;20096;-59
2024/01/26 06:16:24;;;;;;;9.48;4.90;;;12.80;99.90;;;;;;4248002;27;20043;-59
2024/01/26 06:18:26;;;;;;;13.20;5.30;;;12.80;99.90;;;;;;4248216;27;20130;-59
2024/01/26 06:20:31;;;;;;;11.80;4.97;;;12.80;99.90;;;;;;4247987;27;20110;-59
2024/01/26 06:22:33;;;;;;;14.93;5.43;;;12.80;99.90;;;;;;4247558;27;20138;-59
2024/01/26 06:24:35;;;;;;;12.82;5.57;;;12.80;99.90;;;;;;4253621;27;20050;-59
2024/01/26 06:26:38;;;;;;;13.55;5.50;;;12.80;99.90;;;;;;4265326;27;20473;-58
2024/01/26 06:28:41;;;;;;;11.25;5.00;;;12.80;99.90;;;;;;4265357;27;20133;-59
2024/01/26 06:30:43;;;;;;;14.45;4.88;;;12.80;99.90;;;;;;4265329;27;20054;-59
2024/01/26 06:32:45;;;;;;;13.90;5.38;;;12.80;99.90;;;;;;4265166;27;20047;-59
2024/01/26 06:34:48;;;;;;;13.02;4.65;;;12.80;99.90;;;;;;4265193;27;20058;-59
2024/01/26 06:36:50;;;;;;;16.02;5.55;;;12.80;99.90;;;;;;4264886;27;20118;-59
2024/01/26 06:38:52;;;;;;;13.05;5.03;;;12.80;99.90;;;;;;4265107;27;20113;-59
2024/01/26 06:40:54;;;;;;;16.23;5.93;;;12.80;99.90;;;;;;4265085;27;20053;-59
2024/01/26 06:42:56;;;;;;;12.45;4.90;;;12.90;99.90;;;;;;4265133;27;20065;-59
2024/01/26 06:45:00;;;;;;;15.18;5.60;;;12.80;99.90;;;;;;4264979;27;20070;-59
2024/01/26 06:47:02;;;;;;;13.55;5.00;;;12.80;99.90;;;;;;4265208;27;20053;-59
2024/01/26 06:49:04;;;;;;;11.52;5.00;;;12.90;99.90;;;;;;4264929;27;20098;-59
2024/01/26 06:51:08;;;;;;;14.85;5.53;;;12.80;99.90;;;;;;4264656;27;20050;-59
2024/01/26 06:53:11;;;;;;;16.17;5.50;;;12.80;99.90;;;;;;4265148;27;20046;-59
2024/01/26 06:55:13;;;;;;;10.95;5.63;;;12.80;99.90;;;;;;4262136;27;20551;-59
2024/01/26 06:57:15;;;;;;;16.73;5.25;;;12.90;99.90;;;;;;4248220;28;20051;-59
2024/01/26 06:59:17;;;;;;;14.75;5.18;;;12.90;99.90;;;;;;4247762;27;20464;-60
2024/01/26 07:01:21;;;;;;;16.88;5.50;;;12.90;99.90;;;;;;4247564;27;20051;-59
2024/01/26 07:03:23;;;;;;;17.45;5.65;;;12.90;99.90;;;;;;4247691;28;20486;-59
2024/01/26 07:05:25;;;;;;;14.63;5.30;;;12.90;99.90;;;;;;4247348;28;20047;-59
2024/01/26 07:07:27;;;;;;;21.45;5.85;;;12.90;99.90;;;;;;4247654;28;20039;-59
2024/01/26 07:09:29;;;;;;;20.15;5.53;;;12.90;99.90;;;;;;4247640;28;20435;-59
2024/01/26 07:11:32;;;;;;;16.02;5.13;;;12.90;99.90;;;;;;4247455;28;20043;-59
2024/01/26 07:13:34;;;;;;;15.32;5.78;;;13.00;99.90;;;;;;4247470;28;20829;-59
2024/01/26 07:15:36;;;;;;;15.23;5.60;;;12.90;99.90;;;;;;4247776;28;20048;-59
2024/01/26 07:17:40;;;;;;;11.43;4.72;;;13.00;99.90;;;;;;4229398;28;20048;-59
2024/01/26 07:19:42;;;;;;;12.52;5.45;;;13.00;99.90;;;;;;4247209;28;20502;-59
2024/01/26 07:21:44;;;;;;;16.60;5.57;;;12.90;99.90;;;;;;4247641;28;20047;-59
2024/01/26 07:23:46;;;;;;;14.60;5.10;;;12.90;99.90;;;;;;4247806;28;20122;-60
2024/01/26 07:25:48;;;;;;;14.98;4.88;;;12.90;99.90;;;;;;4266594;27;20087;-59
2024/01/26 07:27:50;;;;;;;16.80;5.30;;;12.90;99.90;;;;;;4268364;27;20050;-58
2024/01/26 07:29:53;;;;;;;16.67;4.82;;;12.90;99.90;;;;;;4267892;27;20579;-59
2024/01/26 07:31:55;;;;;;;15.77;5.20;;;12.90;99.90;;;;;;4268248;27;20091;-60
2024/01/26 07:33:58;;;;;;;18.20;4.78;;;12.90;99.90;;;;;;4249697;27;20090;-59
2024/01/26 07:36:01;;;;;;;13.30;5.05;;;12.90;99.90;;;;;;4268573;27;20457;-60
2024/01/26 07:38:03;;;;;;;13.70;5.40;;;13.00;99.90;;;;;;4268845;27;20043;-65
2024/01/26 07:40:06;;;;;;;18.08;6.03;;;12.90;99.90;;;;;;4268476;27;20074;-59
2024/01/26 07:42:08;;;;;;;18.23;5.72;;;12.90;99.90;;;;;;4250188;27;20134;-59
2024/01/26 07:44:11;;;;;;;17.05;5.40;;;12.80;99.90;;;;;;4268363;27;20062;-59
2024/01/26 07:46:13;;;;;;;12.70;5.63;;;12.90;99.90;;;;;;4268436;27;20049;-59
2024/01/26 07:48:15;;;;;;;15.90;5.40;;;12.90;99.90;;;;;;4250051;27;20488;-59
2024/01/26 07:50:19;;;;;;;16.08;5.50;;;12.80;99.90;;;;;;4267964;27;20039;-59
2024/01/26 07:52:21;;;;;;;15.02;4.90;;;12.80;99.90;;;;;;4268169;27;20051;-58
2024/01/26 07:54:24;;;;;;;16.60;5.05;;;12.90;99.90;;;;;;4267920;27;20066;-64
2024/01/26 07:56:26;;;;;;;14.93;5.43;;;12.80;99.90;;;;;;4254571;27;20054;-59
2024/01/26 07:58:28;;;;;;;16.48;5.05;;;12.80;99.90;;;;;;4249927;27;20039;-58
2024/01/26 08:00:30;;;;;;;16.52;5.78;;;12.80;99.90;;;;;;4250640;27;20088;-58
2024/01/26 08:02:33;;;;;;;14.80;5.78;;;12.80;99.90;;;;;;4250790;27;20167;-58
2024/01/26 08:04:35;;;;;;;15.30;5.15;;;12.80;99.90;;;;;;4232989;28;20074;-58
2024/01/26 08:06:38;;;;;;;9.80;4.90;;;12.80;99.90;;;;;;4252309;27;20475;-64
2024/01/26 08:08:41;;;;;;;15.02;4.80;;;12.70;99.90;;;;;;4252283;27;20047;-60
2024/01/26 08:10:44;;;;;;;16.13;4.40;;;12.80;99.90;;;;;;4232878;27;20463;-58
2024/01/26 08:12:46;;;;;;;15.25;4.78;;;12.80;99.90;;;;;;4232077;28;20051;-58
2024/01/26 08:14:49;;;;;;;11.82;3.95;;;12.80;99.90;;;;;;4250425;27;20054;-58
2024/01/26 08:16:52;;;;;;;9.63;4.22;;;12.70;99.90;;;;;;4250398;27;20043;-58
2024/01/26 08:18:54;;;;;;;7.55;3.60;;;12.80;99.90;;;;;;4249737;27;20045;-58
2024/01/26 08:20:56;;;;;;;9.18;3.60;;;12.80;99.90;;;;;;4250308;27;20376;-58
2024/01/26 08:23:01;;;;;;;10.07;2.85;;;12.80;99.90;;;;;;4250179;27;20173;-58
2024/01/26 08:25:04;;;;;;;8.97;2.80;;;12.80;99.90;;;;;;4259635;27;20054;-58
2024/01/26 08:27:06;;;;;;;12.25;3.42;;;12.90;99.90;;;;;;4267296;27;20785;-58
2024/01/26 08:29:08;;;;;;;9.80;3.13;;;12.90;99.90;;;;;;4267370;27;20051;-59
2024/01/26 08:31:14;;;;;;;7.85;3.15;;;12.90;99.90;;;;;;4267178;27;20070;-59
2024/01/26 08:33:16;;;;;;;10.13;2.47;;;12.90;99.90;;;;;;4266875;27;20050;-59
2024/01/26 08:35:19;;;;;;;5.60;2.88;;;13.00;99.90;;;;;;4267253;27;20075;-59
2024/01/26 08:37:21;;;;;;;6.40;2.88;;;12.90;99.90;;;;;;4266424;27;20147;-59
2024/01/26 08:39:25;;;;;;;5.18;2.92;;;13.00;99.90;;;;;;4267111;27;20042;-59
2024/01/26 08:41:27;;;;;;;9.20;3.33;;;12.90;99.90;;;;;;4267101;27;20065;-59
2024/01/26 08:43:29;;;;;;;7.60;2.53;;;13.00;99.90;;;;;;4267180;27;20081;-59
2024/01/26 08:45:31;;;;;;;8.23;3.35;;;12.90;99.90;;;;;;4266973;27;20536;-59
2024/01/26 08:47:33;;;;;;;6.63;2.92;;;12.90;99.90;;;;;;4266704;27;20437;-60
2024/01/26 08:49:36;;;;;;;8.40;3.30;;;12.90;99.90;;;;;;4266786;27;20490;-59
2024/01/26 08:51:38;;;;;;;7.47;3.20;;;13.10;99.90;;;;;;4266800;27;20074;-59
2024/01/26 08:53:40;;;;;;;8.13;2.97;;;13.00;99.90;;;;;;4266793;27;20485;-59
2024/01/26 08:55:49;;;;;;;8.60;3.22;;;12.90;99.90;;;;;;4259965;27;20051;-59
2024/01/26 08:57:51;;;;;;;9.98;3.90;;;12.90;99.90;;;;;;4249704;27;20107;-59
2024/01/26 08:59:54;;;;;;;7.85;4.28;;;12.80;99.90;;;;;;4249426;27;20043;-59
2024/01/26 09:01:56;;;;;;;8.40;3.53;;;12.80;99.90;;;;;;4249095;27;20051;-59
2024/01/26 09:03:58;;;;;;;7.28;3.40;;;12.80;99.90;;;;;;4249601;27;20055;-59
2024/01/26 09:06:00;;;;;;;10.60;2.92;;;12.90;99.90;;;;;;4249418;27;20130;-58
2024/01/26 09:08:03;;;;;;;6.10;2.78;;;12.90;99.90;;;;;;4249363;27;20050;-60
2024/01/26 09:10:05;;;;;;;5.65;2.35;;;12.90;99.90;;;;;;4249328;27;20097;-59
2024/01/26 09:12:09;;;;;;;7.63;2.72;;;12.90;99.90;;;;;;4249284;27;20154;-59
2024/01/26 09:14:11;;;;;;;6.03;2.38;;;12.90;99.90;;;;;;4249301;27;20043;-59
2024/01/26 09:16:13;;;;;;;5.32;2.78;;;12.90;99.90;;;;;;4231427;28;20044;-64
2024/01/26 09:18:16;;;;;;;6.85;2.80;;;13.00;99.90;;;;;;4249852;27;20047;-59
2024/01/26 09:20:19;;;;;;;5.97;3.20;;;13.00;99.90;;;;;;4249795;27;20454;-60
2024/01/26 09:22:21;;;;;;;6.22;2.75;;;13.10;99.90;;;;;;4249334;27;20073;-59
2024/01/26 09:24:23;;;;;;;6.38;2.97;;;13.00;99.90;;;;;;4252958;27;20054;-59
2024/01/26 09:26:25;;;;;;;3.67;2.03;;;13.00;99.90;;;;;;4266371;27;20121;-59
2024/01/26 09:28:29;;;;;;;13.15;2.55;;;13.00;99.90;;;;;;4266181;27;20046;-59
2024/01/26 09:30:31;;;;;;;8.45;2.65;;;13.10;99.90;;;;;;4265927;27;20038;-59
2024/01/26 09:32:34;;;;;;;5.22;2.40;;;13.10;99.90;;;;;;4266574;27;20074;-59
2024/01/26 09:34:36;;;;;;;5.32;2.00;;;13.10;99.90;;;;;;4266062;27;20134;-60
2024/01/26 09:36:38;;;;;;;4.85;2.00;;;13.00;99.90;;;;;;4266360;27;20039;-59
2024/01/26 09:38:40;;;;;;;5.88;2.45;;;13.00;99.90;;;;;;4266160;27;20054;-58
2024/01/26 09:40:43;;;;;;;6.20;2.40;;;12.90;99.90;;;;;;4266232;27;20414;-59
2024/01/26 09:42:45;;;;;;;8.82;2.88;;;12.90;99.90;;;;;;4266131;27;20062;-59
2024/01/26 09:44:49;;;;;;;5.32;1.88;;;13.00;99.90;;;;;;4265793;27;20042;-59
2024/01/26 09:46:51;;;;;;;5.97;2.03;;;12.90;99.90;;;;;;4265964;27;20391;-59
2024/01/26 09:48:54;;;;;;;4.78;2.13;;;12.90;99.90;;;;;;4265686;27;20505;-59
2024/01/26 09:50:57;;;;;;;3.97;1.88;;;12.90;99.90;;;;;;4265890;27;20068;-59
2024/01/26 09:53:00;;;;;;;5.82;1.80;;;13.00;99.90;;;;;;4265720;27;20049;-58
2024/01/26 09:55:05;;;;;;;4.43;1.92;;;12.90;99.90;;;;;;4264326;27;20047;-59
2024/01/26 09:57:10;;;;;;;4.35;1.70;;;12.90;99.90;;;;;;4248616;27;20048;-59
2024/01/26 09:59:12;;;;;;;5.20;2.00;;;12.80;99.90;;;;;;4248155;27;20521;-59
2024/01/26 10:01:19;;;;;;;5.40;1.73;;;12.80;99.90;;;;;;4248726;27;20073;-59
2024/01/26 10:03:22;;;;;;;5.13;1.92;;;12.70;99.90;;;;;;4230330;28;20427;-59
2024/01/26 10:05:25;;;;;;;3.78;1.45;;;12.60;99.90;;;;;;4248871;27;20498;-60
2024/01/26 10:07:27;;;;;;;6.80;1.60;;;12.60;99.90;;;;;;4248497;27;20039;-59
2024/01/26 10:09:29;;;;;;;7.82;1.98;;;12.50;99.90;;;;;;4248386;27;20039;-59
2024/01/26 10:11:31;;;;;;;6.63;1.73;;;12.50;99.90;;;;;;4248470;27;20047;-59
2024/01/26 10:13:34;;;;;;;6.00;1.60;;;12.50;99.90;;;;;;4248890;27;20088;-60
2024/01/26 10:15:37;;;;;;;13.32;1.95;;;12.50;99.90;;;;;;4249848;27;20043;-60
2024/01/26 10:17:43;;;;;;;5.10;1.70;;;12.60;99.90;;;;;;4248873;27;20047;-59
2024/01/26 10:19:45;;;;;;;8.75;1.92;;;12.60;99.90;;;;;;4248157;27;20039;-59
2024/01/26 10:21:47;;;;;;;10.98;2.30;;;12.60;99.90;;;;;;4230765;28;20115;-60
2024/01/26 10:23:50;;;;;;;13.45;2.33;;;12.50;99.90;;;;;;4249700;27;20039;-59
2024/01/26 10:25:52;;;;;;;4.45;1.40;;;12.50;99.90;;;;;;4246976;27;20043;-59
2024/01/26 10:27:55;;;;;;;6.82;1.88;;;12.40;99.90;;;;;;4265376;27;20412;-59
2024/01/26 10:29:57;;;;;;;8.10;1.60;;;12.50;99.90;;;;;;4264761;27;20045;-59
2024/01/26 10:31:59;;;;;;;12.27;2.08;;;12.50;99.90;;;;;;4265266;27;20050;-59
2024/01/26 10:34:05;;;;;;;6.63;2.05;;;12.60;99.90;;;;;;4265227;27;20072;-59